Terminal Aerodrome Forecast
Issued by NWS

Home | Current Version | Previous Version | Text Only | Print | Product List | Glossary On
Versions: 1 2 3 4 5 6 7 8 9 10 11 12 13 14 15 16 17 18
000
FTUS46 KMFR 251139
TAFOTH
TAF
KOTH 251139Z 2512/2612 VRB03KT P6SM SCT015 OVC025
     FM251700 32008KT P6SM BKN030
     FM252000 35014G25KT P6SM BKN030
     FM260300 36010KT P6SM OVC025=

USA.gov is the U.S. government's official web portal to all federal, state and local government web resources and services.